createdAt,value
2022-08-07T00:01:44.731Z,98.82
2022-08-07T00:04:06.007Z,97.60
2022-08-07T00:06:33.863Z,116.72
2022-08-07T00:09:16.217Z,82.27
2022-08-07T00:11:47.960Z,170.98
2022-08-07T00:14:22.282Z,81.63
2022-08-07T00:16:52.681Z,76.40
2022-08-07T00:19:21.296Z,69.60
2022-08-07T00:21:56.568Z,85.70
2022-08-07T00:24:31.540Z,49.28
2022-08-07T00:27:06.388Z,83.35
2022-08-07T00:29:37.207Z,103.37
2022-08-07T00:32:06.828Z,178.93
2022-08-07T00:34:35.539Z,125.63
2022-08-07T00:37:04.946Z,83.10
2022-08-07T00:39:33.761Z,4.47
2022-08-07T00:42:05.251Z,1.00
2022-08-07T00:44:41.273Z,3.97
2022-08-07T00:47:15.613Z,6.07
2022-08-07T00:50:21.325Z,5.00
2022-08-07T00:52:43.035Z,3.35
2022-08-07T00:55:17.523Z,8.45
2022-08-07T00:57:55.969Z,61.20
2022-08-07T01:00:23.747Z,112.45
2022-08-07T01:02:51.679Z,99.47
2022-08-07T01:05:20.686Z,110.90
2022-08-07T01:07:51.518Z,121.05
2022-08-07T01:10:18.808Z,139.47
2022-08-07T01:12:54.069Z,120.47
2022-08-07T01:15:35.692Z,1.37
2022-08-07T01:18:17.138Z,0.73
2022-08-07T01:20:57.204Z,9.37
2022-08-07T01:23:36.916Z,15.50
2022-08-07T01:26:13.070Z,4.20
2022-08-07T01:28:46.511Z,5.47
2022-08-07T01:31:20.667Z,11.75
2022-08-07T01:33:57.652Z,26.92
2022-08-07T01:36:33.256Z,12.85
2022-08-07T01:39:10.044Z,22.90
2022-08-07T01:41:54.967Z,14.55
2022-08-07T01:44:30.927Z,1.40
2022-08-07T01:47:01.245Z,41.57
2022-08-07T01:49:42.803Z,81.70
2022-08-07T01:52:10.247Z,1.52
2022-08-07T01:54:40.248Z,5.97
2022-08-07T01:57:24.822Z,48.58
2022-08-07T02:00:13.722Z,7.95
2022-08-07T02:03:11.975Z,3.38
2022-08-07T02:05:59.421Z,9.52
2022-08-07T02:08:29.095Z,28.50
2022-08-07T02:10:59.331Z,66.27
2022-08-07T02:13:56.684Z,51.45
2022-08-07T02:16:20.051Z,39.28
2022-08-07T02:19:02.830Z,27.30
2022-08-07T02:21:56.172Z,46.03
2022-08-07T02:24:23.634Z,30.65
2022-08-07T02:26:51.036Z,32.22
2022-08-07T02:29:21.883Z,27.52
2022-08-07T02:31:51.056Z,15.05
2022-08-07T02:34:21.718Z,33.03
2022-08-07T02:36:53.160Z,34.27
2022-08-07T02:39:43.417Z,36.90
2022-08-07T02:42:16.212Z,11.43
2022-08-07T02:44:48.878Z,16.73
2022-08-07T02:47:23.428Z,3.30
2022-08-07T02:49:59.083Z,1.47
2022-08-07T02:52:39.203Z,1.60
2022-08-07T02:55:27.749Z,1.60
2022-08-07T02:58:13.309Z,1.50
2022-08-07T03:00:47.122Z,2.60
2022-08-07T03:03:22.752Z,1.73
2022-08-07T03:05:54.195Z,1.45
2022-08-07T03:08:27.040Z,21.20
2022-08-07T03:10:59.579Z,61.95
2022-08-07T03:13:39.146Z,67.27
2022-08-07T03:16:17.292Z,95.68
2022-08-07T03:18:47.854Z,56.20
2022-08-07T03:21:19.064Z,70.13
2022-08-07T03:24:19.341Z,28.95
2022-08-07T03:26:36.426Z,30.13
2022-08-07T03:29:19.873Z,39.38
2022-08-07T03:31:51.262Z,50.27
2022-08-07T03:34:22.844Z,34.00
2022-08-07T03:36:58.162Z,25.73
2022-08-07T03:39:45.890Z,34.63
2022-08-07T03:42:17.632Z,21.00
2022-08-07T03:44:53.110Z,2.60
2022-08-07T03:47:22.574Z,22.98
2022-08-07T03:49:53.367Z,38.80
2022-08-07T03:52:27.578Z,35.55
2022-08-07T03:55:07.034Z,35.03
2022-08-07T03:58:35.343Z,18.30
2022-08-07T04:00:33.851Z,3.22
2022-08-07T04:03:03.688Z,10.70
2022-08-07T04:05:40.541Z,24.03
2022-08-07T04:08:18.383Z,41.38
2022-08-07T04:10:53.930Z,10.38
2022-08-07T04:14:33.243Z,45.85
2022-08-07T04:16:31.454Z,44.15
2022-08-07T04:19:04.377Z,48.80
2022-08-07T04:21:39.831Z,45.72
2022-08-07T04:24:26.867Z,50.38
2022-08-07T04:26:59.616Z,42.63
2022-08-07T04:29:30.472Z,36.33
2022-08-07T04:32:16.064Z,39.72
2022-08-07T04:34:44.068Z,35.45
2022-08-07T04:37:20.133Z,36.10
2022-08-07T04:39:47.990Z,25.20
2022-08-07T04:42:17.935Z,27.30
2022-08-07T04:44:54.533Z,34.08
2022-08-07T04:48:00.461Z,12.85
2022-08-07T04:50:52.920Z,39.38
2022-08-07T04:54:01.728Z,30.92
2022-08-07T04:58:16.446Z,32.85
2022-08-07T05:00:10.857Z,12.80
2022-08-07T05:02:42.828Z,6.20
2022-08-07T05:05:54.144Z,1.57
2022-08-07T05:09:02.710Z,1.20
2022-08-07T05:11:58.398Z,0.70
2022-08-07T05:14:52.592Z,0.88
2022-08-07T05:17:52.290Z,0.77
2022-08-07T05:20:21.296Z,1.30
2022-08-07T05:22:52.868Z,1.45
2022-08-07T05:25:25.527Z,1.85
2022-08-07T05:28:20.363Z,1.23
2022-08-07T05:30:53.147Z,1.77
2022-08-07T05:33:21.727Z,1.42
2022-08-07T05:35:51.754Z,1.90
2022-08-07T05:39:00.729Z,1.42
2022-08-07T05:41:14.059Z,1.05
2022-08-07T05:44:07.705Z,1.10
2022-08-07T05:46:37.153Z,1.55
2022-08-07T05:49:12.446Z,1.40
2022-08-07T05:51:46.573Z,1.20
2022-08-07T05:54:31.273Z,1.27
2022-08-07T05:57:06.056Z,1.20
2022-08-07T05:59:46.619Z,1.77
2022-08-07T06:02:29.717Z,1.80
2022-08-07T06:05:06.634Z,2.92
2022-08-07T06:08:13.569Z,19.23
2022-08-07T06:10:24.181Z,2.33
2022-08-07T06:12:51.310Z,2.58
2022-08-07T06:15:20.319Z,18.50
2022-08-07T06:17:53.552Z,6.80
2022-08-07T06:20:25.669Z,36.05
2022-08-07T06:23:02.390Z,51.38
2022-08-07T06:25:54.091Z,51.70
2022-08-07T06:28:27.599Z,61.58
2022-08-07T06:30:58.153Z,75.60
2022-08-07T06:33:27.263Z,62.03
2022-08-07T06:36:12.831Z,117.85
2022-08-07T06:40:16.275Z,114.82
2022-08-07T06:42:01.636Z,91.70
2022-08-07T06:44:51.203Z,102.10
2022-08-07T06:47:19.734Z,93.03
2022-08-07T06:49:52.116Z,91.63
2022-08-07T06:52:35.563Z,96.90
2022-08-07T06:55:32.251Z,128.88
2022-08-07T06:58:02.356Z,78.47
2022-08-07T07:00:38.191Z,73.80
2022-08-07T07:03:08.893Z,80.05
2022-08-07T07:06:03.808Z,80.72
2022-08-07T07:08:28.179Z,68.57
2022-08-07T07:10:57.421Z,81.70
2022-08-07T07:13:56.554Z,129.95
2022-08-07T07:16:23.792Z,65.90
2022-08-07T07:19:54.402Z,75.47
2022-08-07T07:22:11.738Z,71.33
2022-08-07T07:24:43.148Z,57.10
2022-08-07T07:27:35.851Z,172.57
2022-08-07T07:30:32.631Z,185.50
2022-08-07T07:33:07.787Z,242.90
2022-08-07T07:35:43.979Z,43.45
2022-08-07T07:38:27.748Z,154.70
2022-08-07T07:41:02.208Z,182.07
2022-08-07T07:43:47.802Z,143.07
2022-08-07T07:46:36.618Z,15.20
2022-08-07T07:50:34.080Z,111.18
2022-08-07T07:51:59.899Z,91.70
2022-08-07T07:54:29.482Z,105.97
2022-08-07T07:56:57.670Z,127.40
2022-08-07T07:59:52.828Z,57.13
2022-08-07T08:02:34.171Z,20.20
2022-08-07T08:05:14.520Z,22.73
2022-08-07T08:08:00.021Z,45.65
2022-08-07T08:10:35.554Z,36.00
2022-08-07T08:13:07.268Z,66.25
2022-08-07T08:15:43.635Z,80.32
2022-08-07T08:18:27.372Z,149.10
2022-08-07T08:20:54.551Z,37.53
2022-08-07T08:23:44.378Z,24.15
2022-08-07T08:26:34.512Z,32.45
2022-08-07T08:29:03.581Z,5.72
2022-08-07T08:32:16.787Z,4.77
2022-08-07T08:34:33.803Z,56.47
2022-08-07T08:37:04.924Z,61.70
2022-08-07T08:39:39.645Z,34.90
2022-08-07T08:42:46.774Z,49.85
2022-08-07T08:45:59.279Z,33.15
2022-08-07T08:48:51.958Z,30.92
2022-08-07T08:52:00.722Z,44.13
2022-08-07T08:54:47.447Z,8.73
2022-08-07T08:57:34.081Z,25.27
2022-08-07T09:00:07.762Z,1.40
2022-08-07T09:02:57.759Z,1.30
2022-08-07T09:05:38.021Z,2.97
2022-08-07T09:08:29.624Z,1.88
2022-08-07T09:11:24.476Z,2.08
2022-08-07T09:14:12.400Z,54.75
2022-08-07T09:17:17.209Z,41.80
2022-08-07T09:20:19.607Z,45.33
2022-08-07T09:24:31.970Z,32.90
2022-08-07T09:26:31.755Z,12.52
2022-08-07T09:30:04.645Z,4.22
2022-08-07T09:32:45.916Z,10.55
2022-08-07T09:36:05.147Z,6.88
2022-08-07T09:38:10.391Z,3.33
2022-08-07T09:41:15.430Z,15.23
2022-08-07T09:44:32.747Z,10.40
2022-08-07T09:47:51.294Z,77.50
2022-08-07T09:50:44.030Z,64.00
2022-08-07T09:53:12.849Z,14.50
2022-08-07T09:56:03.609Z,9.83
2022-08-07T09:58:56.722Z,67.55
2022-08-07T10:02:03.273Z,4.47
2022-08-07T10:05:00.795Z,1.88
2022-08-07T10:07:52.957Z,10.73
2022-08-07T10:10:22.819Z,12.75
2022-08-07T10:13:15.944Z,42.17
2022-08-07T10:16:19.379Z,42.63
2022-08-07T10:18:59.220Z,68.67
2022-08-07T10:22:15.600Z,52.25
2022-08-07T10:24:54.787Z,12.73
2022-08-07T10:27:46.097Z,50.73
2022-08-07T10:30:19.569Z,65.80
2022-08-07T10:33:08.494Z,80.77
2022-08-07T10:36:17.166Z,42.53
2022-08-07T10:38:59.743Z,65.93
2022-08-07T10:41:46.819Z,18.00
2022-08-07T10:44:28.706Z,26.20
2022-08-07T10:47:27.018Z,18.73
2022-08-07T10:50:15.226Z,9.75
2022-08-07T10:53:05.223Z,1.50
2022-08-07T10:55:53.439Z,1.77
2022-08-07T10:58:49.660Z,2.60
2022-08-07T11:01:51.717Z,1.55
2022-08-07T11:04:58.963Z,5.20
2022-08-07T11:08:01.247Z,6.10
2022-08-07T11:10:34.739Z,4.45
2022-08-07T11:13:42.292Z,11.52
2022-08-07T11:16:11.501Z,4.93
2022-08-07T11:18:50.850Z,5.38
2022-08-07T11:21:29.126Z,1.77
2022-08-07T11:24:08.455Z,4.40
2022-08-07T11:26:50.209Z,5.22
2022-08-07T11:29:41.160Z,5.07
2022-08-07T11:32:25.396Z,1.60
2022-08-07T11:34:58.606Z,1.38
2022-08-07T11:37:58.155Z,0.80
2022-08-07T11:40:56.196Z,1.77
2022-08-07T11:43:54.722Z,3.67
2022-08-07T11:46:36.861Z,5.80
2022-08-07T11:50:11.145Z,3.63
2022-08-07T11:52:50.512Z,2.33
2022-08-07T11:56:25.131Z,4.63
2022-08-07T11:58:41.764Z,7.60
2022-08-07T12:02:00.733Z,9.15
2022-08-07T12:04:36.665Z,4.53
2022-08-07T12:07:20.175Z,5.10
2022-08-07T12:10:07.745Z,7.57
2022-08-07T12:12:43.754Z,0.80
2022-08-07T12:15:46.702Z,5.65
2022-08-07T12:18:13.164Z,1.13
2022-08-07T12:20:49.379Z,1.08
2022-08-07T12:24:05.781Z,1.13
2022-08-07T12:26:53.331Z,1.27
2022-08-07T12:29:37.267Z,1.05
2022-08-07T12:32:19.426Z,0.85
2022-08-07T12:34:49.162Z,0.93
2022-08-07T12:37:23.454Z,0.98
2022-08-07T12:39:58.487Z,1.05
2022-08-07T12:42:31.753Z,1.00
2022-08-07T12:45:07.106Z,0.80
2022-08-07T12:47:49.367Z,0.90
2022-08-07T12:50:40.259Z,1.08
2022-08-07T12:54:02.819Z,0.90
2022-08-07T12:56:29.206Z,0.90
2022-08-07T12:58:59.716Z,0.88
2022-08-07T13:01:32.078Z,1.00
2022-08-07T13:04:49.245Z,0.80
2022-08-07T13:08:12.354Z,0.90
2022-08-07T13:12:02.268Z,0.90
2022-08-07T13:14:51.254Z,1.00
2022-08-07T13:17:41.131Z,1.00
2022-08-07T13:20:27.787Z,1.83
2022-08-07T13:24:01.300Z,1.00
2022-08-07T13:26:04.092Z,1.00
2022-08-07T13:28:38.752Z,1.40
2022-08-07T13:31:13.139Z,1.00
2022-08-07T13:34:31.026Z,0.98
2022-08-07T13:36:47.556Z,0.90
2022-08-07T13:40:32.767Z,1.00
2022-08-07T13:42:25.085Z,1.17
2022-08-07T13:45:11.505Z,1.13
2022-08-07T13:48:05.941Z,0.90
2022-08-07T13:51:00.116Z,0.80
2022-08-07T13:53:23.732Z,1.15
2022-08-07T13:55:54.573Z,1.10
2022-08-07T13:58:56.545Z,1.20
2022-08-07T14:01:27.065Z,1.10
2022-08-07T14:04:06.716Z,0.73
2022-08-07T14:06:38.533Z,0.93
2022-08-07T14:09:09.771Z,0.70
2022-08-07T14:11:53.420Z,1.30
2022-08-07T14:14:51.728Z,1.10
2022-08-07T14:18:13.114Z,4.13
2022-08-07T14:20:44.567Z,7.63
2022-08-07T14:23:31.512Z,1.05
2022-08-07T14:26:28.654Z,0.95
2022-08-07T14:29:08.625Z,0.93
2022-08-07T14:34:30.064Z,1.07
2022-08-07T14:37:03.680Z,1.23
2022-08-07T14:40:15.803Z,1.10
2022-08-07T14:42:31.401Z,1.08
2022-08-07T14:45:21.766Z,1.00
2022-08-07T14:47:51.409Z,1.15
2022-08-07T14:50:28.229Z,1.17
2022-08-07T14:52:56.931Z,1.35
2022-08-07T14:55:55.285Z,1.42
2022-08-07T14:58:27.050Z,4.20
2022-08-07T15:00:55.639Z,3.35
2022-08-07T15:03:52.349Z,4.20
2022-08-07T15:06:25.855Z,3.40
2022-08-07T15:08:55.536Z,2.93
2022-08-07T15:11:54.112Z,2.90
2022-08-07T15:14:17.619Z,2.80
2022-08-07T15:16:54.883Z,3.07
2022-08-07T15:20:23.626Z,3.20
2022-08-07T15:22:23.175Z,2.72
2022-08-07T15:25:14.054Z,2.60
2022-08-07T15:28:30.728Z,3.40
2022-08-07T15:30:36.559Z,10.15
2022-08-07T15:33:33.962Z,11.38
2022-08-07T15:36:05.702Z,12.43
2022-08-07T15:42:45.154Z,17.33
2022-08-07T15:44:17.175Z,9.73
2022-08-07T15:52:30.007Z,30.00
2022-08-07T15:55:03.526Z,30.60
2022-08-07T15:57:39.986Z,32.25
2022-08-07T16:00:22.728Z,40.05
2022-08-07T16:03:04.440Z,43.10
2022-08-07T16:05:31.754Z,39.10
2022-08-07T16:08:32.213Z,40.55
2022-08-07T16:11:01.060Z,8.27
2022-08-07T16:13:59.768Z,14.18
2022-08-07T16:16:48.037Z,8.02
2022-08-07T16:19:42.508Z,14.52
2022-08-07T16:22:37.729Z,14.05
2022-08-07T16:25:22.799Z,16.27
2022-08-07T16:29:18.872Z,36.35
2022-08-07T16:31:02.509Z,6.40
2022-08-07T16:34:01.550Z,44.25
2022-08-07T16:36:47.852Z,39.25
2022-08-07T16:40:03.034Z,16.17
2022-08-07T16:42:49.945Z,20.58
2022-08-07T16:46:47.223Z,91.45
2022-08-07T16:49:03.947Z,123.63
2022-08-07T16:52:35.444Z,52.13
2022-08-07T16:55:47.217Z,77.38
2022-08-07T16:59:10.322Z,95.20
2022-08-07T17:01:53.830Z,14.20
2022-08-07T17:04:33.217Z,8.15
2022-08-07T17:07:28.512Z,15.73
2022-08-07T17:10:34.477Z,9.33
2022-08-07T17:13:16.387Z,13.05
2022-08-07T17:15:56.881Z,25.00
2022-08-07T17:18:46.005Z,42.97
2022-08-07T17:21:23.512Z,58.13
2022-08-07T17:24:28.753Z,148.33
2022-08-07T17:26:58.632Z,388.42
2022-08-07T17:30:14.459Z,125.35
2022-08-07T17:32:52.955Z,55.38
2022-08-07T17:35:50.341Z,194.00
2022-08-07T17:38:34.132Z,106.53
2022-08-07T17:42:02.898Z,145.57
2022-08-07T17:44:41.330Z,204.32
2022-08-07T17:47:42.808Z,225.90
2022-08-07T17:50:32.988Z,308.15
2022-08-07T17:53:59.988Z,228.18
2022-08-07T17:56:35.787Z,179.20
2022-08-07T17:59:20.744Z,197.68
2022-08-07T18:02:03.958Z,168.57
2022-08-07T18:04:44.801Z,182.60
2022-08-07T18:07:24.325Z,174.63
2022-08-07T18:10:10.218Z,206.27
2022-08-07T18:13:01.149Z,195.67
2022-08-07T18:15:53.813Z,220.20
2022-08-07T18:18:46.956Z,209.25
2022-08-07T18:22:03.563Z,244.30
2022-08-07T18:24:43.006Z,212.48
2022-08-07T18:27:12.848Z,134.93
2022-08-07T18:30:31.875Z,200.65
2022-08-07T18:33:10.709Z,251.48
2022-08-07T18:35:55.601Z,273.80
2022-08-07T18:38:55.947Z,247.87
2022-08-07T18:42:07.616Z,255.57
2022-08-07T18:45:44.168Z,241.20
2022-08-07T18:48:05.486Z,124.75
2022-08-07T18:50:47.657Z,151.52
2022-08-07T18:53:36.861Z,238.32
2022-08-07T18:56:20.992Z,235.95
2022-08-07T18:59:47.883Z,230.85
2022-08-07T19:02:18.633Z,219.93
2022-08-07T19:05:23.574Z,225.95
2022-08-07T19:07:59.674Z,234.45
2022-08-07T19:10:51.554Z,247.98
2022-08-07T19:13:51.972Z,210.68
2022-08-07T19:17:07.644Z,219.02
2022-08-07T19:19:46.001Z,265.40
2022-08-07T19:22:31.124Z,232.90
2022-08-07T19:25:05.445Z,238.20
2022-08-07T19:28:29.891Z,196.17
2022-08-07T19:31:03.116Z,248.07
2022-08-07T19:33:33.551Z,256.10
2022-08-07T19:36:03.918Z,126.80
2022-08-07T19:38:35.631Z,279.65
2022-08-07T19:41:44.733Z,252.82
2022-08-07T19:44:21.380Z,114.37
2022-08-07T19:46:55.671Z,197.13
2022-08-07T19:49:56.684Z,179.65
2022-08-07T19:52:18.416Z,217.38
2022-08-07T19:54:57.424Z,232.50
2022-08-07T19:58:03.261Z,267.87
2022-08-07T20:00:36.495Z,138.55
2022-08-07T20:03:35.181Z,253.50
2022-08-07T20:06:02.500Z,215.45
2022-08-07T20:08:35.639Z,276.33
2022-08-07T20:11:10.178Z,97.22
2022-08-07T20:13:45.385Z,141.00
2022-08-07T20:16:34.668Z,220.63
2022-08-07T20:19:10.943Z,289.48
2022-08-07T20:21:47.305Z,267.10
2022-08-07T20:24:30.108Z,236.47
2022-08-07T20:27:02.245Z,239.60
2022-08-07T20:29:48.402Z,188.75
2022-08-07T20:32:25.464Z,157.82
2022-08-07T20:34:57.402Z,186.32
2022-08-07T20:37:57.806Z,209.75
2022-08-07T20:40:33.453Z,15.90
2022-08-07T20:43:03.796Z,15.50
2022-08-07T20:46:25.793Z,2.78
2022-08-07T20:48:33.993Z,3.38
2022-08-07T20:51:09.571Z,37.38
2022-08-07T20:54:03.020Z,15.73
2022-08-07T20:56:30.416Z,230.60
2022-08-07T20:59:05.201Z,204.32
2022-08-07T21:01:45.256Z,199.30
2022-08-07T21:04:21.973Z,201.20
2022-08-07T21:06:55.125Z,177.10
2022-08-07T21:09:30.108Z,154.13
2022-08-07T21:12:29.041Z,276.80
2022-08-07T21:15:02.820Z,249.77
2022-08-07T21:18:01.929Z,102.82
2022-08-07T21:20:30.255Z,179.88
2022-08-07T21:23:08.267Z,132.50
2022-08-07T21:25:56.277Z,191.10
2022-08-07T21:28:48.705Z,246.27
2022-08-07T21:32:10.890Z,130.40
2022-08-07T21:34:55.552Z,117.60
2022-08-07T21:37:57.911Z,159.23
2022-08-07T21:40:38.355Z,219.63
2022-08-07T21:43:17.684Z,151.13
2022-08-07T21:46:25.042Z,232.03
2022-08-07T21:49:17.879Z,246.82
2022-08-07T21:52:13.157Z,145.40
2022-08-07T21:54:59.287Z,284.95
2022-08-07T21:58:06.311Z,164.38
2022-08-07T22:00:33.697Z,125.25
2022-08-07T22:03:16.765Z,235.38
2022-08-07T22:06:30.873Z,258.50
2022-08-07T22:09:07.935Z,284.02
2022-08-07T22:12:05.006Z,206.50
2022-08-07T22:14:37.628Z,130.50
2022-08-07T22:17:16.263Z,240.65
2022-08-07T22:20:04.276Z,249.45
2022-08-07T22:22:46.691Z,254.52
2022-08-07T22:25:27.025Z,284.60
2022-08-07T22:28:31.373Z,266.20
2022-08-07T22:31:56.213Z,73.17
2022-08-07T22:34:13.257Z,47.35
2022-08-07T22:37:14.648Z,56.42
2022-08-07T22:39:53.321Z,142.30
2022-08-07T22:42:25.969Z,85.22
2022-08-07T22:45:02.302Z,60.25
2022-08-07T22:47:52.451Z,23.33
2022-08-07T22:50:35.610Z,43.38
2022-08-07T22:54:09.179Z,125.95
2022-08-07T22:56:12.915Z,147.40
2022-08-07T22:58:43.134Z,27.27
2022-08-07T23:01:49.750Z,32.97
2022-08-07T23:04:58.381Z,42.13
2022-08-07T23:07:47.507Z,26.45
2022-08-07T23:10:42.034Z,39.80
2022-08-07T23:13:09.238Z,206.93
2022-08-07T23:16:06.591Z,180.13
2022-08-07T23:19:48.188Z,145.80
2022-08-07T23:22:40.839Z,82.28
2022-08-07T23:25:36.371Z,103.10
2022-08-07T23:28:29.010Z,18.08
2022-08-07T23:32:49.661Z,68.50
2022-08-07T23:34:51.654Z,112.00
2022-08-07T23:38:14.379Z,23.85
2022-08-07T23:40:51.964Z,138.15
2022-08-07T23:43:38.067Z,74.03
2022-08-07T23:46:33.716Z,141.95
2022-08-07T23:49:50.105Z,115.55
2022-08-07T23:53:16.613Z,124.70
2022-08-07T23:55:51.677Z,170.02
2022-08-07T23:58:43.607Z,92.93
